createdAt,value
2022-10-20T00:02:14.425Z,5.77
2022-10-20T00:04:41.101Z,5.75
2022-10-20T00:07:07.577Z,5.74
2022-10-20T00:09:34.103Z,5.74
2022-10-20T00:12:00.579Z,5.71
2022-10-20T00:14:27.087Z,5.71
2022-10-20T00:16:53.632Z,5.70
2022-10-20T00:19:20.269Z,5.71
2022-10-20T00:21:46.740Z,5.67
2022-10-20T00:24:13.266Z,5.65
2022-10-20T00:26:39.736Z,5.67
2022-10-20T00:29:06.326Z,5.67
2022-10-20T00:31:33.082Z,5.64
2022-10-20T00:33:59.721Z,5.63
2022-10-20T00:36:26.244Z,5.63
2022-10-20T00:38:58.098Z,5.60
2022-10-20T00:41:24.645Z,5.60
2022-10-20T00:43:54.989Z,5.63
2022-10-20T00:46:24.867Z,5.62
2022-10-20T00:48:58.217Z,5.61
2022-10-20T00:51:28.868Z,5.58
2022-10-20T00:54:09.356Z,5.59
2022-10-20T00:56:39.925Z,5.58
2022-10-20T00:59:06.679Z,5.57
2022-10-20T01:01:33.518Z,5.57
2022-10-20T01:04:01.477Z,5.57
2022-10-20T01:06:28.320Z,5.56
2022-10-20T01:08:54.974Z,5.55
2022-10-20T01:11:50.985Z,5.52
2022-10-20T01:14:26.257Z,5.52
2022-10-20T01:17:25.703Z,5.50
2022-10-20T01:20:20.294Z,5.48
2022-10-20T01:23:13.274Z,5.44
2022-10-20T01:26:24.472Z,5.43
2022-10-20T01:28:58.235Z,5.42
2022-10-20T01:31:35.086Z,5.42
2022-10-20T01:34:25.156Z,5.39
2022-10-20T01:36:56.117Z,5.39
2022-10-20T01:39:29.961Z,5.36
2022-10-20T01:42:01.299Z,5.40
2022-10-20T01:44:30.581Z,5.41
2022-10-20T01:46:59.058Z,5.40
2022-10-20T01:49:26.423Z,5.41
2022-10-20T01:51:53.579Z,5.40
2022-10-20T01:54:25.737Z,5.39
2022-10-20T01:57:02.112Z,5.39
2022-10-20T01:59:57.840Z,5.37
2022-10-20T02:02:49.359Z,5.37
2022-10-20T02:05:23.974Z,5.36
2022-10-20T02:07:50.801Z,5.34
2022-10-20T02:10:49.566Z,5.32
2022-10-20T02:13:18.529Z,5.32
2022-10-20T02:15:50.993Z,5.28
2022-10-20T02:18:22.610Z,5.26
2022-10-20T02:20:52.263Z,5.27
2022-10-20T02:23:19.078Z,5.25
2022-10-20T02:25:49.734Z,5.23
2022-10-20T02:28:17.833Z,5.22
2022-10-20T02:30:45.675Z,5.18
2022-10-20T02:33:13.054Z,5.16
2022-10-20T02:35:43.884Z,5.17
2022-10-20T02:38:10.409Z,5.12
2022-10-20T02:40:36.888Z,5.09
2022-10-20T02:43:03.401Z,5.08
2022-10-20T02:45:29.864Z,5.09
2022-10-20T02:47:56.669Z,5.06
2022-10-20T02:50:23.150Z,5.01
2022-10-20T02:52:49.665Z,5.00
2022-10-20T02:55:16.266Z,4.98
2022-10-20T02:57:42.762Z,4.97
2022-10-20T03:00:09.970Z,4.94
2022-10-20T03:02:36.546Z,4.92
2022-10-20T03:05:03.489Z,4.89
2022-10-20T03:07:30.140Z,4.92
2022-10-20T03:09:56.731Z,4.92
2022-10-20T03:12:23.285Z,4.91
2022-10-20T03:14:49.854Z,4.89
2022-10-20T03:17:16.361Z,4.90
2022-10-20T03:19:42.943Z,4.90
2022-10-20T03:22:09.431Z,4.86
2022-10-20T03:24:35.984Z,4.85
2022-10-20T03:27:02.502Z,4.84
2022-10-20T03:29:29.009Z,4.83
2022-10-20T03:31:55.523Z,4.81
2022-10-20T03:34:22.122Z,4.79
2022-10-20T03:36:48.671Z,4.75
2022-10-20T03:39:15.229Z,4.78
2022-10-20T03:41:41.740Z,4.77
2022-10-20T03:44:10.169Z,4.73
2022-10-20T03:46:37.092Z,4.70
2022-10-20T03:49:04.148Z,4.68
2022-10-20T03:51:30.618Z,4.67
2022-10-20T03:53:57.124Z,4.68
2022-10-20T03:56:23.920Z,4.67
2022-10-20T03:58:50.795Z,4.66
2022-10-20T04:01:21.397Z,4.64
2022-10-20T04:03:47.953Z,4.63
2022-10-20T04:06:15.897Z,4.60
2022-10-20T04:08:42.586Z,4.62
2022-10-20T04:11:09.399Z,4.63
2022-10-20T04:13:35.966Z,4.64
2022-10-20T04:16:02.472Z,4.62
2022-10-20T04:18:29.065Z,4.60
2022-10-20T04:20:55.546Z,4.60
2022-10-20T04:23:22.093Z,4.58
2022-10-20T04:25:48.853Z,4.56
2022-10-20T04:28:17.308Z,4.58
2022-10-20T04:30:44.500Z,4.59
2022-10-20T04:33:12.010Z,4.58
2022-10-20T04:35:39.134Z,4.56
2022-10-20T04:38:06.123Z,4.52
2022-10-20T04:40:33.015Z,4.57
2022-10-20T04:43:01.101Z,4.58
2022-10-20T04:45:28.249Z,4.58
2022-10-20T04:47:54.951Z,4.59
2022-10-20T04:50:21.647Z,4.54
2022-10-20T04:52:48.112Z,4.53
2022-10-20T04:55:14.677Z,4.50
2022-10-20T04:57:41.254Z,4.47
2022-10-20T05:00:08.327Z,4.45
2022-10-20T05:02:34.798Z,4.47
2022-10-20T05:05:01.325Z,4.42
2022-10-20T05:07:30.432Z,4.43
2022-10-20T05:09:56.924Z,4.41
2022-10-20T05:12:23.738Z,4.47
2022-10-20T05:14:50.250Z,4.44
2022-10-20T05:17:16.728Z,4.37
2022-10-20T05:19:43.237Z,4.33
2022-10-20T05:22:09.774Z,4.32
2022-10-20T05:24:36.299Z,4.34
2022-10-20T05:27:02.928Z,4.33
2022-10-20T05:29:29.579Z,4.34
2022-10-20T05:31:56.087Z,4.35
2022-10-20T05:34:22.637Z,4.38
2022-10-20T05:36:49.166Z,4.39
2022-10-20T05:39:15.790Z,4.40
2022-10-20T05:41:42.282Z,4.36
2022-10-20T05:44:11.339Z,4.39
2022-10-20T05:46:41.141Z,4.39
2022-10-20T05:49:11.072Z,4.35
2022-10-20T05:51:37.668Z,4.35
2022-10-20T05:54:04.385Z,4.31
2022-10-20T05:56:32.059Z,4.33
2022-10-20T05:58:58.762Z,4.28
2022-10-20T06:01:49.709Z,4.31
2022-10-20T06:04:25.050Z,4.26
2022-10-20T06:06:52.700Z,4.27
2022-10-20T06:09:21.369Z,4.31
2022-10-20T06:11:48.227Z,4.33
2022-10-20T06:14:15.311Z,4.33
2022-10-20T06:16:41.858Z,4.33
2022-10-20T06:19:08.419Z,4.34
2022-10-20T06:21:36.323Z,4.35
2022-10-20T06:24:04.909Z,4.35
2022-10-20T06:26:33.524Z,4.36
2022-10-20T06:29:04.752Z,4.36
2022-10-20T06:31:40.912Z,4.39
2022-10-20T06:34:14.524Z,4.38
2022-10-20T06:36:46.481Z,4.39
2022-10-20T06:39:23.775Z,4.40
2022-10-20T06:41:53.446Z,4.42
2022-10-20T06:44:22.299Z,4.43
2022-10-20T06:46:49.842Z,4.47
2022-10-20T06:49:16.367Z,4.48
2022-10-20T06:51:42.911Z,4.52
2022-10-20T06:54:09.513Z,4.55
2022-10-20T06:56:37.043Z,4.61
2022-10-20T06:59:07.268Z,4.63
2022-10-20T07:01:46.933Z,4.70
2022-10-20T07:04:15.393Z,4.72
2022-10-20T07:06:44.741Z,4.75
2022-10-20T07:09:17.648Z,4.80
2022-10-20T07:11:44.589Z,4.88
2022-10-20T07:14:13.591Z,4.97
2022-10-20T07:16:40.238Z,5.02
2022-10-20T07:19:07.026Z,5.17
2022-10-20T07:21:36.560Z,5.22
2022-10-20T07:24:06.649Z,5.29
2022-10-20T07:26:35.962Z,5.43
2022-10-20T07:29:03.841Z,5.56
2022-10-20T07:31:33.649Z,5.64
2022-10-20T07:34:12.969Z,5.73
2022-10-20T07:36:42.571Z,5.85
2022-10-20T07:39:11.119Z,5.91
2022-10-20T07:41:39.572Z,6.00
2022-10-20T07:44:07.042Z,6.13
2022-10-20T07:46:33.543Z,6.18
2022-10-20T07:49:23.824Z,6.25
2022-10-20T07:51:46.587Z,6.32
2022-10-20T07:54:13.120Z,6.40
2022-10-20T07:56:41.873Z,6.54
2022-10-20T07:59:10.191Z,6.63
2022-10-20T08:01:37.228Z,6.71
2022-10-20T08:04:04.038Z,6.81
2022-10-20T08:06:30.913Z,6.84
2022-10-20T08:08:57.560Z,6.98
2022-10-20T08:11:24.568Z,7.10
2022-10-20T08:13:51.152Z,7.12
2022-10-20T08:16:27.247Z,7.17
2022-10-20T08:21:22.841Z,7.27
2022-10-20T08:23:49.900Z,7.35
2022-10-20T08:26:26.181Z,7.45
2022-10-20T08:28:54.702Z,7.50
2022-10-20T08:31:22.040Z,7.56
2022-10-20T08:33:52.309Z,7.61
2022-10-20T08:36:20.424Z,7.65
2022-10-20T08:38:46.964Z,7.70
2022-10-20T08:41:22.748Z,7.74
2022-10-20T08:43:52.484Z,7.78
2022-10-20T08:46:20.726Z,7.82
2022-10-20T08:48:48.261Z,7.86
2022-10-20T08:51:27.758Z,7.94
2022-10-20T08:53:57.368Z,7.99
2022-10-20T08:56:26.055Z,8.03
2022-10-20T08:58:52.956Z,8.11
2022-10-20T09:01:33.354Z,8.16
2022-10-20T09:04:20.071Z,8.23
2022-10-20T09:06:51.985Z,8.28
2022-10-20T09:09:21.331Z,8.35
2022-10-20T09:11:48.551Z,8.39
2022-10-20T09:14:16.709Z,8.42
2022-10-20T09:16:59.880Z,8.43
2022-10-20T09:19:28.486Z,8.47
2022-10-20T09:21:58.113Z,8.50
2022-10-20T09:24:30.053Z,8.57
2022-10-20T09:27:15.869Z,8.63
2022-10-20T09:29:42.417Z,8.75
2022-10-20T09:32:46.002Z,8.80
2022-10-20T09:35:33.020Z,8.87
2022-10-20T09:38:09.793Z,8.88
2022-10-20T09:40:43.295Z,8.92
2022-10-20T09:43:15.396Z,8.98
2022-10-20T09:45:52.784Z,9.05
2022-10-20T09:48:29.150Z,9.16
2022-10-20T09:50:57.421Z,9.24
2022-10-20T09:53:32.474Z,9.30
2022-10-20T09:55:59.780Z,9.37
2022-10-20T09:58:38.490Z,9.43
2022-10-20T10:01:13.123Z,9.54
2022-10-20T10:03:44.967Z,9.60
2022-10-20T10:06:37.988Z,9.66
2022-10-20T10:09:26.492Z,9.71
2022-10-20T10:12:12.247Z,9.73
2022-10-20T10:14:51.213Z,9.77
2022-10-20T10:17:39.976Z,9.81
2022-10-20T10:20:12.503Z,9.90
2022-10-20T10:22:40.345Z,9.96
2022-10-20T10:25:14.972Z,10.02
2022-10-20T10:27:58.314Z,10.15
2022-10-20T10:30:27.769Z,10.21
2022-10-20T10:32:55.214Z,10.31
2022-10-20T10:35:26.886Z,10.32
2022-10-20T10:37:54.487Z,10.29
2022-10-20T10:40:37.693Z,10.36
2022-10-20T10:43:31.943Z,10.39
2022-10-20T10:46:01.254Z,10.36
2022-10-20T10:48:27.667Z,10.38
2022-10-20T10:50:58.888Z,10.31
2022-10-20T10:53:42.364Z,10.35
2022-10-20T10:56:24.004Z,10.33
2022-10-20T10:59:09.087Z,10.43
2022-10-20T11:01:47.462Z,10.50
2022-10-20T11:04:25.841Z,10.65
2022-10-20T11:07:01.271Z,10.76
2022-10-20T11:09:58.876Z,10.86
2022-10-20T11:12:34.135Z,10.95
2022-10-20T11:15:15.617Z,11.00
2022-10-20T11:17:57.350Z,11.05
2022-10-20T11:20:39.770Z,11.12
2022-10-20T11:23:27.337Z,11.19
2022-10-20T11:26:00.096Z,11.21
2022-10-20T11:28:45.869Z,11.32
2022-10-20T11:31:42.321Z,11.42
2022-10-20T11:34:50.260Z,11.52
2022-10-20T11:37:22.677Z,11.60
2022-10-20T11:39:57.335Z,11.60
2022-10-20T11:42:32.530Z,11.72
2022-10-20T11:45:01.319Z,11.81
2022-10-20T11:47:36.242Z,11.84
2022-10-20T11:50:09.727Z,11.96
2022-10-20T11:53:01.015Z,11.84
2022-10-20T11:55:46.228Z,11.92
2022-10-20T11:58:32.092Z,11.88
2022-10-20T12:01:23.260Z,11.82
2022-10-20T12:04:13.847Z,11.84
2022-10-20T12:07:18.032Z,11.91
2022-10-20T12:10:02.584Z,11.85
2022-10-20T12:12:53.677Z,11.86
2022-10-20T12:15:25.213Z,11.89
2022-10-20T12:17:54.009Z,11.93
2022-10-20T12:20:20.460Z,11.93
2022-10-20T12:22:50.562Z,11.94
2022-10-20T12:25:26.540Z,12.02
2022-10-20T12:28:22.486Z,11.96
2022-10-20T12:30:59.352Z,11.99
2022-10-20T12:33:50.780Z,11.96
2022-10-20T12:36:17.347Z,11.93
2022-10-20T12:38:49.192Z,11.87
2022-10-20T12:41:30.377Z,11.85
2022-10-20T12:44:21.215Z,11.90
2022-10-20T12:47:19.805Z,11.95
2022-10-20T12:49:59.035Z,11.97
2022-10-20T12:52:32.547Z,12.04
2022-10-20T12:55:18.540Z,12.09
2022-10-20T12:57:46.446Z,12.13
2022-10-20T13:00:19.059Z,12.17
2022-10-20T13:02:50.897Z,12.22
2022-10-20T13:05:17.347Z,12.23
2022-10-20T13:07:47.020Z,12.26
2022-10-20T13:10:38.726Z,12.28
2022-10-20T13:13:05.188Z,12.26
2022-10-20T13:15:35.578Z,12.26
2022-10-20T13:18:04.210Z,12.26
2022-10-20T13:21:14.873Z,12.28
2022-10-20T13:23:45.527Z,12.25
2022-10-20T13:26:23.291Z,12.24
2022-10-20T13:28:52.850Z,12.23
2022-10-20T13:32:03.738Z,12.23
2022-10-20T13:34:55.600Z,12.24
2022-10-20T13:37:28.421Z,12.24
2022-10-20T13:40:31.080Z,12.26
2022-10-20T13:43:03.580Z,12.23
2022-10-20T13:45:57.865Z,12.20
2022-10-20T13:48:40.784Z,12.19
2022-10-20T13:51:21.329Z,12.21
2022-10-20T13:53:52.539Z,12.21
2022-10-20T13:56:31.739Z,12.17
2022-10-20T13:59:06.945Z,12.14
2022-10-20T14:01:36.200Z,12.17
2022-10-20T14:04:02.820Z,12.15
2022-10-20T14:06:29.291Z,12.13
2022-10-20T14:08:58.019Z,12.13
2022-10-20T14:11:30.767Z,12.10
2022-10-20T14:13:59.677Z,12.09
2022-10-20T14:16:28.902Z,12.08
2022-10-20T14:19:09.177Z,12.09
2022-10-20T14:21:42.641Z,12.04
2022-10-20T14:24:16.597Z,12.03
2022-10-20T14:26:44.317Z,11.99
2022-10-20T14:29:16.206Z,11.95
2022-10-20T14:31:44.274Z,11.90
2022-10-20T14:34:22.790Z,11.87
2022-10-20T14:36:51.126Z,11.85
2022-10-20T14:39:30.363Z,11.75
2022-10-20T14:42:00.883Z,11.70
2022-10-20T14:44:31.744Z,11.67
2022-10-20T14:47:05.272Z,11.65
2022-10-20T14:49:39.296Z,11.65
2022-10-20T14:52:22.059Z,11.53
2022-10-20T14:54:50.641Z,11.52
2022-10-20T14:57:17.094Z,11.46
2022-10-20T15:00:02.786Z,11.43
2022-10-20T15:02:32.561Z,11.39
2022-10-20T15:05:31.184Z,11.32
2022-10-20T15:07:58.434Z,11.29
2022-10-20T15:10:26.789Z,11.26
2022-10-20T15:12:56.536Z,11.24
2022-10-20T15:15:29.208Z,11.22
2022-10-20T15:18:04.711Z,11.15
2022-10-20T15:20:33.981Z,11.14
2022-10-20T15:23:11.301Z,11.11
2022-10-20T15:25:46.942Z,11.08
2022-10-20T15:28:21.398Z,11.04
2022-10-20T15:30:48.165Z,10.98
2022-10-20T15:33:14.756Z,10.97
2022-10-20T15:35:45.229Z,10.95
2022-10-20T15:38:11.756Z,10.93
2022-10-20T15:40:38.365Z,10.92
2022-10-20T15:43:05.415Z,10.91
2022-10-20T15:45:37.502Z,10.89
2022-10-20T15:48:04.227Z,10.85
2022-10-20T15:50:30.973Z,10.82
2022-10-20T15:52:57.496Z,10.80
2022-10-20T15:55:31.385Z,10.77
2022-10-20T15:57:58.327Z,10.74
2022-10-20T16:00:27.425Z,10.73
2022-10-20T16:02:54.155Z,10.72
2022-10-20T16:05:26.167Z,10.69
2022-10-20T16:07:54.267Z,10.67
2022-10-20T16:10:28.576Z,10.67
2022-10-20T16:12:55.587Z,10.68
2022-10-20T16:15:22.368Z,10.66
2022-10-20T16:20:20.304Z,10.66
2022-10-20T16:22:46.902Z,10.65
2022-10-20T16:25:13.545Z,10.63
2022-10-20T16:27:40.323Z,10.62
2022-10-20T16:30:08.160Z,10.64
2022-10-20T16:32:35.448Z,10.71
2022-10-20T16:35:04.288Z,10.78
2022-10-20T16:37:32.741Z,10.93
2022-10-20T16:39:59.922Z,11.01
2022-10-20T16:42:28.334Z,11.09
2022-10-20T16:44:54.836Z,11.14
2022-10-20T16:47:21.445Z,11.16
2022-10-20T16:49:47.985Z,11.22
2022-10-20T16:52:14.523Z,11.25
2022-10-20T16:57:13.307Z,11.34
2022-10-20T16:59:39.867Z,11.35
2022-10-20T17:02:06.525Z,11.36
2022-10-20T17:04:33.640Z,11.37
2022-10-20T17:07:00.200Z,11.33
2022-10-20T17:09:27.027Z,11.32
2022-10-20T17:11:53.543Z,11.27
2022-10-20T17:14:20.118Z,11.29
2022-10-20T17:16:47.399Z,11.28
2022-10-20T17:19:14.041Z,11.27
2022-10-20T17:21:40.571Z,11.29
2022-10-20T17:24:11.479Z,11.31
2022-10-20T17:26:39.841Z,11.23
2022-10-20T17:29:08.577Z,11.24
2022-10-20T17:31:37.115Z,11.24
2022-10-20T17:34:05.296Z,11.23
2022-10-20T17:36:32.268Z,11.18
2022-10-20T17:39:01.768Z,11.15
2022-10-20T17:41:28.611Z,11.15
2022-10-20T17:43:55.230Z,11.14
2022-10-20T17:46:21.973Z,11.13
2022-10-20T17:48:48.443Z,11.12
2022-10-20T17:51:21.361Z,11.11
2022-10-20T17:53:50.110Z,11.14
2022-10-20T17:56:19.915Z,11.09
2022-10-20T17:58:49.245Z,11.06
2022-10-20T18:01:18.105Z,11.06
2022-10-20T18:03:46.787Z,11.02
2022-10-20T18:06:19.285Z,10.95
2022-10-20T18:08:46.124Z,10.96
2022-10-20T18:11:18.922Z,10.96
2022-10-20T18:13:45.968Z,10.92
2022-10-20T18:16:15.551Z,10.88
2022-10-20T18:18:42.287Z,10.83
2022-10-20T18:21:11.292Z,10.89
2022-10-20T18:23:38.446Z,10.85
2022-10-20T18:26:13.773Z,10.81
2022-10-20T18:28:43.163Z,10.83
2022-10-20T18:31:17.678Z,10.84
2022-10-20T18:33:44.887Z,10.84
2022-10-20T18:36:13.690Z,10.82
2022-10-20T18:38:42.160Z,10.80
2022-10-20T18:41:20.242Z,10.79
2022-10-20T18:43:47.055Z,10.76
2022-10-20T18:46:14.911Z,10.77
2022-10-20T18:48:41.887Z,10.75
2022-10-20T18:51:10.454Z,10.71
2022-10-20T18:53:38.328Z,10.68
2022-10-20T18:56:08.354Z,10.69
2022-10-20T18:58:38.339Z,10.66
2022-10-20T19:01:10.049Z,10.66
2022-10-20T19:03:37.087Z,10.65
2022-10-20T19:06:09.734Z,10.65
2022-10-20T19:08:38.158Z,10.62
2022-10-20T19:11:07.302Z,10.58
2022-10-20T19:13:34.166Z,10.57
2022-10-20T19:16:06.042Z,10.55
2022-10-20T19:18:32.671Z,10.57
2022-10-20T19:21:02.096Z,10.59
2022-10-20T19:23:31.143Z,10.60
2022-10-20T19:26:22.520Z,10.57
2022-10-20T19:28:58.857Z,10.57
2022-10-20T19:31:41.805Z,10.55
2022-10-20T19:34:18.254Z,10.45
2022-10-20T19:36:48.405Z,10.43
2022-10-20T19:39:21.700Z,10.44
2022-10-20T19:41:48.680Z,10.43
2022-10-20T19:44:15.679Z,10.42
2022-10-20T19:46:44.306Z,10.44
2022-10-20T19:49:11.667Z,10.42
2022-10-20T19:51:38.707Z,10.39
2022-10-20T19:54:06.200Z,10.40
2022-10-20T19:56:34.193Z,10.41
2022-10-20T19:59:02.598Z,10.38
2022-10-20T20:01:29.591Z,10.34
2022-10-20T20:03:56.460Z,10.33
2022-10-20T20:06:23.339Z,10.33
2022-10-20T20:08:53.799Z,10.27
2022-10-20T20:11:23.913Z,10.26
2022-10-20T20:13:53.500Z,10.18
2022-10-20T20:16:20.912Z,10.20
2022-10-20T20:18:48.239Z,10.22
2022-10-20T20:21:15.611Z,10.22
2022-10-20T20:23:58.280Z,10.18
2022-10-20T20:26:25.807Z,10.19
2022-10-20T20:28:54.222Z,10.18
2022-10-20T20:31:21.625Z,10.16
2022-10-20T20:33:48.298Z,10.14
2022-10-20T20:36:14.897Z,10.18
2022-10-20T20:38:42.052Z,10.19
2022-10-20T20:41:13.672Z,10.20
2022-10-20T20:43:45.473Z,10.18
2022-10-20T20:46:16.775Z,10.19
2022-10-20T20:48:44.037Z,10.19
2022-10-20T20:51:11.515Z,10.20
2022-10-20T20:53:39.624Z,10.22
2022-10-20T20:56:09.706Z,10.22
2022-10-20T20:58:36.675Z,10.23
2022-10-20T21:01:19.067Z,10.20
2022-10-20T21:03:46.677Z,10.20
2022-10-20T21:06:16.111Z,10.19
2022-10-20T21:08:45.463Z,10.20
2022-10-20T21:11:21.917Z,10.16
2022-10-20T21:13:49.972Z,10.17
2022-10-20T21:16:19.967Z,10.19
2022-10-20T21:18:49.428Z,10.20
2022-10-20T21:21:19.750Z,10.18
2022-10-20T21:23:46.332Z,10.18
2022-10-20T21:26:15.606Z,10.18
2022-10-20T21:28:42.769Z,10.17
2022-10-20T21:31:12.033Z,10.18
2022-10-20T21:33:39.120Z,10.17
2022-10-20T21:36:13.534Z,10.16
2022-10-20T21:38:41.092Z,10.13
2022-10-20T21:41:10.943Z,10.12
2022-10-20T21:43:40.301Z,10.10
2022-10-20T21:46:31.610Z,10.09
2022-10-20T21:49:01.314Z,10.09
2022-10-20T21:51:30.999Z,10.07
2022-10-20T21:53:59.828Z,10.08
2022-10-20T21:56:26.728Z,10.06
2022-10-20T21:58:54.045Z,10.04
2022-10-20T22:01:23.061Z,10.00
2022-10-20T22:03:51.406Z,9.98
2022-10-20T22:06:19.947Z,9.97
2022-10-20T22:08:49.101Z,9.96
2022-10-20T22:11:19.127Z,9.94
2022-10-20T22:13:47.191Z,9.91
2022-10-20T22:16:16.861Z,9.91
2022-10-20T22:18:43.535Z,9.88
2022-10-20T22:21:13.703Z,9.89
2022-10-20T22:23:40.946Z,9.87
2022-10-20T22:26:07.732Z,9.86
2022-10-20T22:28:34.397Z,9.83
2022-10-20T22:33:33.236Z,9.78
2022-10-20T22:35:59.755Z,9.75
2022-10-20T22:38:26.287Z,9.73
2022-10-20T22:40:52.767Z,9.68
2022-10-20T22:43:19.271Z,9.65
2022-10-20T22:45:45.750Z,9.63
2022-10-20T22:48:12.325Z,9.60
2022-10-20T22:50:38.797Z,9.57
2022-10-20T22:53:05.304Z,9.55
2022-10-20T22:55:31.771Z,9.54
2022-10-20T23:00:29.994Z,9.48
2022-10-20T23:02:56.777Z,9.47
2022-10-20T23:05:23.333Z,9.42
2022-10-20T23:07:49.906Z,9.38
2022-10-20T23:10:16.578Z,9.35
2022-10-20T23:12:43.074Z,9.33
2022-10-20T23:15:10.088Z,9.29
2022-10-20T23:17:37.772Z,9.28
2022-10-20T23:20:04.775Z,9.24
2022-10-20T23:22:31.260Z,9.19
2022-10-20T23:24:57.766Z,9.17
2022-10-20T23:27:24.284Z,9.14
2022-10-20T23:29:50.780Z,9.11
2022-10-20T23:32:17.253Z,9.08
2022-10-20T23:34:43.792Z,9.05
2022-10-20T23:37:10.296Z,9.02
2022-10-20T23:39:36.823Z,9.01
2022-10-20T23:42:06.377Z,9.01
2022-10-20T23:44:33.883Z,8.98
2022-10-20T23:47:00.392Z,8.98
2022-10-20T23:49:26.892Z,8.97
2022-10-20T23:51:53.364Z,8.96
2022-10-20T23:54:19.872Z,8.93
2022-10-20T23:56:46.479Z,8.93
2022-10-20T23:59:13.028Z,8.92
